Wasta, South Dakota
Current Conditions -  °F | °C
As of 6:52 AM on Tuesday 27 Jan 2015 (Local Time) from KRAP Reporting Station
Clear Clear  
Wind Chill: 40°   Ceiling: Unl
Heat Index: 45°   Visibility: 10mi
Dew Point: 25°   Wind: 10mph
Humidity: 46%   Direction: 300°WNW
Pressure: 29.95"   Gusts: NA
Location:  44.07°N, 102.45°W
Report Text: KRAP 271352Z 30009KT 10SM CLR 07/M04 A2995 RMK AO2 SLP151 T00721039
Loading
Personal Weather Stations






























Interactive Weather Map New forecast layout! Learn more

10-Day Weather Forecast

Advertisements
Track Severe Weather on mobile